GB-0349 weather

Royal Bournemouth Hospital Helipad
Bournemouth, England, United Kingdom

Public forecast

Using degrees Celsius for public forecast. Weather courtesy of forecast.io.

METAR (pilot weather report)

Closest report is Bournemouth Airport, 2.2 nm (4.0 km) NNW. Retrieved 2019/07/17 19:20 UTC (19 minutes ago):

EGHH 171920Z 24007KT CAVOK 19/14 Q1012

TAF (pilot weather forecast)

Forecast is more than 12 hours old.

Closest forecast is Bournemouth Airport, 2.2 nm (4.0 km) NNW. Retrieved 2013/12/01 21:21 UTC (6 years ago):

TAF TAF EGHH 010016Z 3021/0106 CNL